Share

Arltunga, Northern Territory

5:05 AM CST on April 24, 2014 (GMT +0930)
Alice Springs (YBAS) Elev 1795 ft | 23.80 °S, 133.89 °E | Change Station

Current weather conditions updated 35 minutes ago

Clear
Clear
54 °F
Feels Like 54 °F
N
5
Wind Variable Wind from NW
Sunrise 6:48 AM
Sunset 6:10 PM
Moon Waning Crescent

Today is forecast to be nearly the same temperature as yesterday.

Pressure 29.98 in
Visibility 6.2 miles
Clouds
Dew Point 45 °F
Humidity 72%
Rainfall 0.00 in
Snow Depth Not available.
UV Not available.
Pollen Not available.
Air Quality Not available.
Flu Activity Not available.
METAR YBAS 231900Z AUTO 31004KT 9999 // NCD 12/07 Q1015

More Conditions Fewer Conditions

Pressure 29.98 in
Visibility 6.2 miles
Clouds
Dew Point 45 °F
Humidity 72%
Rainfall 0.00 in
Snow Depth Not available.
UV Not available.
Pollen Not available.
Air Quality Not available.
Flu Activity Not available.
METAR YBAS 231900Z AUTO 31004KT 9999 // NCD 12/07 Q1015

More Conditions Fewer Conditions

10-Day Weather Forecast

Almanac

Astronomy

Apr. 24, 2014 Rise Set
Actual Time 6:48 AM CST 6:10 PM CST
Civil Twilight 6:25 AM CST 6:33 PM CST
Nautical Twilight 5:58 AM CST 7:00 PM CST
Astronomical Twilight 5:32 AM CST 7:26 PM CST
Moon 1:36 AM CST (4/24) 2:32 PM CST (4/24)
Length of Visible Light 12h 08m
Length of Day
11h 22m
Tomorrow will be 1m 11s shorter.
Waning Crescent, 33% of the Moon is Illuminated
Apr 23
Waning Crescent
Apr 29
New
May 6
First Quarter
May 14
Full
May 21
Last Quarter

Yesterday's Extremes

Country Highs Country Lows

Community

  • Stunning Sunrise
    Stunning Sunrise
  • spring flowers
    spring flowers
  • Earth Day Spectrum Ove' Blue
    Earth Day Spectrum Ove' Blue
  • BARN B&W
    BARN B&W
  • April Sunset
    April Sunset

WunderPhotos

Upload Photos

1,704,389 photos uploaded!

WunderBlogs® & News

Nearby

Snow Depth

Not available.

Coastal Water Temperatures

Place Temperature
No Stations Reporting

Earthquake Activity

City Distance Mag. Time & Date
No recent earthquake activity has been reported nearby.
Minimum magnitude displayed is 2.5.

Nearby Weather Stations

There are no personal weather stations in this area.

What do you think?

We're not finished. Please let us know what you like, what you don't like, and what you are still missing.